createdAt,value
2022-12-01T00:02:10.053Z,82.46
2022-12-01T00:05:14.602Z,83.05
2022-12-01T00:08:19.709Z,83.65
2022-12-01T00:11:22.750Z,84.20
2022-12-01T00:14:26.536Z,84.54
2022-12-01T00:17:30.188Z,84.95
2022-12-01T00:20:35.088Z,85.30
2022-12-01T00:23:39.382Z,85.19
2022-12-01T00:26:42.518Z,85.75
2022-12-01T00:29:47.024Z,85.75
2022-12-01T00:32:50.521Z,85.81
2022-12-01T00:36:00.563Z,85.66
2022-12-01T00:39:03.423Z,84.96
2022-12-01T00:42:12.881Z,85.00
2022-12-01T00:45:16.108Z,84.96
2022-12-01T00:48:19.240Z,85.23
2022-12-01T00:51:21.698Z,85.51
2022-12-01T00:54:25.025Z,85.46
2022-12-01T00:57:27.777Z,85.10
2022-12-01T01:00:31.411Z,85.10
2022-12-01T01:03:34.776Z,85.01
2022-12-01T01:06:37.674Z,85.09
2022-12-01T01:09:40.399Z,85.49
2022-12-01T01:12:43.573Z,85.36
2022-12-01T01:15:58.291Z,85.63
2022-12-01T01:19:01.853Z,85.75
2022-12-01T01:22:04.489Z,85.82
2022-12-01T01:25:08.160Z,86.14
2022-12-01T01:28:11.516Z,86.11
2022-12-01T01:31:20.450Z,86.43
2022-12-01T01:34:22.962Z,86.39
2022-12-01T01:37:26.940Z,86.39
2022-12-01T01:40:29.419Z,86.59
2022-12-01T01:43:42.071Z,86.47
2022-12-01T01:46:45.121Z,86.55
2022-12-01T01:49:49.073Z,86.67
2022-12-01T01:52:57.942Z,86.55
2022-12-01T01:56:03.219Z,86.57
2022-12-01T01:59:06.094Z,86.68
2022-12-01T02:02:10.710Z,86.83
2022-12-01T02:05:21.451Z,86.97
2022-12-01T02:08:24.335Z,87.18
2022-12-01T02:11:48.630Z,87.37
2022-12-01T02:15:09.708Z,87.46
2022-12-01T02:18:51.607Z,87.34
2022-12-01T02:22:05.881Z,87.42
2022-12-01T02:25:48.336Z,87.45
2022-12-01T02:29:47.691Z,87.71
2022-12-01T02:33:09.008Z,87.89
2022-12-01T02:36:17.477Z,87.74
2022-12-01T02:39:39.141Z,87.87
2022-12-01T02:42:53.420Z,87.67
2022-12-01T02:46:07.776Z,87.59
2022-12-01T02:49:16.078Z,87.53
2022-12-01T02:52:23.144Z,87.69
2022-12-01T02:55:25.630Z,87.87
2022-12-01T02:58:28.576Z,88.15
2022-12-01T03:01:32.349Z,88.10
2022-12-01T03:04:58.922Z,88.23
2022-12-01T03:08:29.624Z,88.44
2022-12-01T03:11:50.868Z,88.46
2022-12-01T03:15:02.123Z,88.83
2022-12-01T03:18:27.120Z,89.03
2022-12-01T03:21:56.158Z,89.07
2022-12-01T03:25:01.568Z,88.58
2022-12-01T03:28:22.201Z,88.70
2022-12-01T03:31:35.908Z,88.64
2022-12-01T03:34:58.784Z,89.15
2022-12-01T03:38:06.875Z,89.23
2022-12-01T03:41:16.642Z,89.00
2022-12-01T03:44:24.655Z,88.78
2022-12-01T03:47:32.291Z,89.21
2022-12-01T03:50:59.552Z,89.08
2022-12-01T03:54:16.474Z,89.11
2022-12-01T03:57:27.002Z,89.27
2022-12-01T04:00:34.125Z,89.23
2022-12-01T04:03:37.720Z,89.08
2022-12-01T04:06:43.014Z,89.09
2022-12-01T04:09:46.106Z,89.08
2022-12-01T04:12:49.410Z,89.08
2022-12-01T04:15:53.843Z,89.20
2022-12-01T04:18:56.909Z,89.10
2022-12-01T04:22:00.483Z,89.16
2022-12-01T04:25:05.100Z,89.27
2022-12-01T04:28:08.079Z,89.55
2022-12-01T04:31:10.765Z,89.59
2022-12-01T04:34:13.954Z,89.62
2022-12-01T04:37:17.373Z,90.04
2022-12-01T04:40:21.741Z,90.60
2022-12-01T04:43:25.402Z,91.17
2022-12-01T04:46:30.264Z,90.90
2022-12-01T04:49:33.813Z,90.71
2022-12-01T04:52:38.268Z,90.77
2022-12-01T04:55:41.499Z,90.80
2022-12-01T04:58:45.155Z,90.63
2022-12-01T05:01:48.333Z,90.61
2022-12-01T05:04:51.653Z,90.71
2022-12-01T05:07:54.507Z,91.20
2022-12-01T05:11:08.041Z,90.98
2022-12-01T05:14:11.773Z,91.10
2022-12-01T05:17:15.619Z,90.91
2022-12-01T05:20:42.257Z,90.61
2022-12-01T05:23:46.055Z,90.82
2022-12-01T05:26:49.461Z,91.79
2022-12-01T05:29:53.140Z,91.54
2022-12-01T05:32:58.217Z,91.56
2022-12-01T05:36:02.785Z,91.74
2022-12-01T05:39:08.630Z,91.62
2022-12-01T05:42:12.556Z,91.24
2022-12-01T05:45:18.093Z,91.04
2022-12-01T05:48:21.994Z,90.96
2022-12-01T05:51:24.909Z,90.78
2022-12-01T05:54:30.123Z,90.90
2022-12-01T05:57:34.299Z,91.29
2022-12-01T06:00:45.436Z,92.06
2022-12-01T06:03:50.840Z,91.83
2022-12-01T06:06:53.607Z,91.51
2022-12-01T06:09:58.055Z,91.39
2022-12-01T06:13:00.738Z,91.25
2022-12-01T06:16:07.017Z,91.56
2022-12-01T06:19:10.570Z,91.63
2022-12-01T06:22:14.188Z,91.80
2022-12-01T06:25:21.918Z,91.52
2022-12-01T06:28:28.566Z,91.70
2022-12-01T06:31:31.580Z,91.64
2022-12-01T06:34:39.264Z,91.26
2022-12-01T06:37:45.005Z,90.89
2022-12-01T06:40:51.379Z,90.71
2022-12-01T06:43:54.907Z,90.27
2022-12-01T06:46:58.057Z,90.43
2022-12-01T06:50:10.069Z,89.08
2022-12-01T06:53:15.285Z,87.20
2022-12-01T06:56:18.399Z,85.56
2022-12-01T06:59:22.416Z,84.31
2022-12-01T07:02:25.900Z,82.97
2022-12-01T07:05:29.549Z,81.95
2022-12-01T07:08:33.770Z,80.66
2022-12-01T07:11:39.351Z,79.95
2022-12-01T07:14:42.665Z,79.01
2022-12-01T07:17:45.924Z,78.56
2022-12-01T07:20:50.298Z,77.75
2022-12-01T07:23:54.884Z,76.83
2022-12-01T07:26:58.427Z,77.45
2022-12-01T07:30:02.066Z,74.53
2022-12-01T07:33:05.688Z,73.84
2022-12-01T07:36:11.738Z,72.01
2022-12-01T07:39:14.847Z,70.29
2022-12-01T07:42:18.837Z,68.08
2022-12-01T07:45:22.556Z,66.50
2022-12-01T07:48:26.861Z,66.50
2022-12-01T07:51:30.845Z,64.90
2022-12-01T07:54:34.000Z,66.29
2022-12-01T07:57:41.264Z,66.69
2022-12-01T08:00:45.880Z,67.01
2022-12-01T08:03:51.078Z,66.97
2022-12-01T08:06:55.494Z,66.75
2022-12-01T08:10:06.602Z,64.92
2022-12-01T08:13:16.945Z,66.20
2022-12-01T08:16:26.074Z,65.94
2022-12-01T08:19:29.664Z,65.68
2022-12-01T08:22:36.052Z,67.24
2022-12-01T08:25:39.610Z,67.43
2022-12-01T08:28:44.488Z,69.37
2022-12-01T08:31:48.126Z,70.17
2022-12-01T08:34:53.830Z,69.69
2022-12-01T08:37:57.570Z,68.95
2022-12-01T08:41:05.300Z,67.18
2022-12-01T08:44:10.763Z,67.33
2022-12-01T08:47:23.993Z,67.59
2022-12-01T08:50:28.610Z,67.96
2022-12-01T08:53:35.550Z,68.89
2022-12-01T08:56:42.227Z,69.00
2022-12-01T08:59:46.119Z,69.55
2022-12-01T09:02:49.469Z,69.09
2022-12-01T09:05:52.879Z,69.80
2022-12-01T09:08:56.621Z,70.34
2022-12-01T09:11:59.577Z,70.43
2022-12-01T09:15:02.818Z,70.87
2022-12-01T09:18:16.007Z,69.45
2022-12-01T09:21:34.245Z,68.86
2022-12-01T09:24:38.420Z,68.25
2022-12-01T09:27:41.189Z,69.35
2022-12-01T09:30:46.339Z,70.06
2022-12-01T09:33:59.120Z,70.48
2022-12-01T09:37:03.042Z,69.56
2022-12-01T09:40:07.303Z,70.02
2022-12-01T09:43:18.597Z,69.78
2022-12-01T09:46:34.650Z,69.09
2022-12-01T09:49:54.113Z,69.19
2022-12-01T09:53:10.207Z,70.08
2022-12-01T09:56:37.835Z,70.42
2022-12-01T09:59:45.284Z,69.46
2022-12-01T10:03:08.405Z,69.06
2022-12-01T10:06:28.445Z,68.99
2022-12-01T10:09:54.716Z,68.18
2022-12-01T10:12:58.103Z,68.76
2022-12-01T10:16:21.932Z,68.60
2022-12-01T10:20:07.034Z,68.26
2022-12-01T10:23:32.371Z,65.92
2022-12-01T10:27:02.874Z,65.98
2022-12-01T10:30:10.080Z,66.52
2022-12-01T10:33:35.963Z,67.33
2022-12-01T10:36:39.129Z,68.47
2022-12-01T10:39:44.892Z,67.50
2022-12-01T10:42:49.564Z,67.55
2022-12-01T10:45:54.727Z,68.69
2022-12-01T10:49:00.217Z,67.96
2022-12-01T10:52:05.224Z,67.96
2022-12-01T10:55:23.693Z,68.58
2022-12-01T10:58:27.603Z,68.25
2022-12-01T11:01:36.024Z,68.63
2022-12-01T11:04:45.327Z,68.27
2022-12-01T11:07:53.234Z,68.37
2022-12-01T11:10:58.698Z,67.87
2022-12-01T11:14:06.248Z,68.19
2022-12-01T11:17:31.151Z,69.07
2022-12-01T11:20:37.377Z,68.26
2022-12-01T11:23:52.009Z,68.05
2022-12-01T11:26:58.643Z,66.85
2022-12-01T11:30:06.921Z,65.81
2022-12-01T11:33:15.590Z,66.15
2022-12-01T11:36:42.641Z,66.17
2022-12-01T11:39:48.735Z,66.26
2022-12-01T11:43:00.247Z,66.04
2022-12-01T11:46:08.184Z,65.56
2022-12-01T11:49:22.907Z,65.37
2022-12-01T11:52:46.481Z,65.72
2022-12-01T11:55:52.982Z,65.28
2022-12-01T11:59:02.155Z,65.82
2022-12-01T12:02:10.328Z,65.93
2022-12-01T12:05:42.551Z,65.52
2022-12-01T12:09:17.936Z,65.82
2022-12-01T12:12:56.370Z,65.40
2022-12-01T12:16:30.412Z,65.37
2022-12-01T12:20:21.109Z,65.75
2022-12-01T12:23:30.130Z,65.92
2022-12-01T12:26:58.619Z,65.95
2022-12-01T12:30:29.794Z,65.48
2022-12-01T12:33:56.058Z,65.87
2022-12-01T12:37:32.163Z,66.25
2022-12-01T12:40:38.921Z,66.03
2022-12-01T12:44:06.472Z,66.42
2022-12-01T12:47:19.149Z,65.81
2022-12-01T12:50:30.057Z,66.45
2022-12-01T12:53:46.084Z,66.57
2022-12-01T12:56:55.645Z,66.12
2022-12-01T13:00:04.891Z,66.03
2022-12-01T13:03:29.214Z,66.73
2022-12-01T13:06:52.281Z,66.34
2022-12-01T13:10:29.241Z,66.73
2022-12-01T13:13:45.185Z,67.07
2022-12-01T13:16:59.947Z,67.22
2022-12-01T13:20:07.028Z,67.55
2022-12-01T13:23:16.915Z,67.47
2022-12-01T13:26:22.239Z,67.67
2022-12-01T13:29:27.221Z,68.21
2022-12-01T13:32:41.176Z,68.55
2022-12-01T13:36:15.462Z,68.44
2022-12-01T13:39:23.241Z,68.97
2022-12-01T13:42:45.060Z,68.97
2022-12-01T13:45:49.833Z,69.07
2022-12-01T13:48:58.006Z,69.70
2022-12-01T13:52:27.010Z,69.66
2022-12-01T13:55:31.271Z,69.70
2022-12-01T13:58:34.598Z,69.79
2022-12-01T14:01:49.350Z,69.80
2022-12-01T14:04:54.343Z,69.99
2022-12-01T14:07:58.660Z,70.77
2022-12-01T14:11:18.794Z,71.18
2022-12-01T14:14:26.380Z,71.92
2022-12-01T14:17:37.223Z,72.31
2022-12-01T14:20:48.016Z,72.74
2022-12-01T14:24:11.925Z,73.37
2022-12-01T14:27:43.371Z,73.52
2022-12-01T14:30:51.962Z,73.97
2022-12-01T14:34:13.163Z,74.30
2022-12-01T14:37:25.047Z,74.67
2022-12-01T14:40:30.591Z,74.55
2022-12-01T14:43:58.043Z,74.76
2022-12-01T14:47:09.951Z,75.21
2022-12-01T14:50:28.539Z,75.37
2022-12-01T14:53:36.088Z,75.67
2022-12-01T14:56:43.076Z,75.78
2022-12-01T14:59:50.502Z,76.14
2022-12-01T15:03:00.173Z,76.38
2022-12-01T15:06:06.005Z,76.51
2022-12-01T15:12:39.085Z,78.02
2022-12-01T15:15:53.275Z,79.17
2022-12-01T15:18:59.066Z,79.13
2022-12-01T15:22:20.256Z,79.97
2022-12-01T15:25:30.902Z,80.88
2022-12-01T15:28:36.616Z,81.27
2022-12-01T15:31:42.951Z,81.32
2022-12-01T15:34:56.956Z,81.40
2022-12-01T15:38:18.302Z,82.13
2022-12-01T15:41:29.684Z,82.67
2022-12-01T15:44:42.330Z,82.67
2022-12-01T15:47:53.023Z,82.51
2022-12-01T15:51:25.997Z,83.55
2022-12-01T15:54:31.155Z,83.74
2022-12-01T15:57:35.273Z,84.08
2022-12-01T16:00:39.905Z,84.64
2022-12-01T16:04:10.008Z,84.68
2022-12-01T16:07:23.934Z,85.52
2022-12-01T16:10:43.308Z,85.81
2022-12-01T16:14:09.017Z,86.15
2022-12-01T16:17:18.998Z,85.76
2022-12-01T16:20:32.000Z,85.84
2022-12-01T16:23:39.021Z,86.11
2022-12-01T16:27:10.056Z,85.98
2022-12-01T16:30:28.948Z,86.45
2022-12-01T16:33:42.197Z,87.15
2022-12-01T16:36:54.024Z,87.26
2022-12-01T16:40:06.017Z,87.54
2022-12-01T16:43:16.177Z,87.46
2022-12-01T16:46:26.667Z,88.10
2022-12-01T16:49:35.002Z,88.08
2022-12-01T16:52:47.217Z,88.01
2022-12-01T16:55:57.142Z,88.29
2022-12-01T16:59:09.005Z,88.42
2022-12-01T17:02:19.238Z,88.64
2022-12-01T17:05:25.121Z,88.64
2022-12-01T17:08:32.243Z,88.84
2022-12-01T17:11:35.916Z,89.03
2022-12-01T17:14:39.297Z,89.19
2022-12-01T17:17:46.012Z,89.51
2022-12-01T17:21:07.086Z,89.46
2022-12-01T17:24:21.259Z,89.33
2022-12-01T17:27:30.974Z,89.15
2022-12-01T17:30:49.248Z,89.93
2022-12-01T17:34:03.016Z,89.88
2022-12-01T17:37:06.903Z,90.08
2022-12-01T17:40:20.031Z,90.15
2022-12-01T17:43:26.219Z,89.74
2022-12-01T17:46:31.650Z,89.72
2022-12-01T17:49:48.914Z,89.66
2022-12-01T17:52:55.103Z,89.46
2022-12-01T17:56:22.869Z,89.80
2022-12-01T17:59:27.671Z,89.49
2022-12-01T18:02:31.282Z,90.12
2022-12-01T18:05:36.109Z,90.97
2022-12-01T18:08:49.115Z,90.94
2022-12-01T18:11:58.701Z,90.79
2022-12-01T18:15:13.716Z,90.30
2022-12-01T18:18:29.082Z,90.81
2022-12-01T18:21:45.203Z,91.12
2022-12-01T18:24:57.900Z,90.80
2022-12-01T18:28:18.009Z,91.01
2022-12-01T18:31:24.281Z,91.25
2022-12-01T18:34:33.966Z,91.14
2022-12-01T18:37:40.982Z,90.64
2022-12-01T18:40:53.991Z,90.98
2022-12-01T18:44:12.055Z,91.01
2022-12-01T18:47:20.266Z,90.79
2022-12-01T18:50:24.157Z,90.38
2022-12-01T18:53:34.865Z,90.60
2022-12-01T18:56:59.101Z,90.52
2022-12-01T19:00:15.945Z,90.52
2022-12-01T19:03:33.046Z,90.63
2022-12-01T19:06:43.068Z,90.53
2022-12-01T19:09:55.154Z,91.02
2022-12-01T19:13:13.021Z,91.24
2022-12-01T19:16:24.115Z,90.75
2022-12-01T19:19:38.024Z,90.76
2022-12-01T19:22:52.918Z,90.68
2022-12-01T19:25:58.909Z,91.07
2022-12-01T19:29:08.005Z,91.14
2022-12-01T19:32:16.007Z,90.90
2022-12-01T19:35:28.984Z,90.86
2022-12-01T19:38:41.966Z,91.23
2022-12-01T19:41:47.981Z,91.24
2022-12-01T19:45:01.888Z,90.87
2022-12-01T19:48:08.485Z,91.91
2022-12-01T19:51:27.005Z,92.48
2022-12-01T19:54:42.149Z,92.11
2022-12-01T19:57:53.942Z,91.86
2022-12-01T20:01:18.503Z,92.21
2022-12-01T20:04:24.118Z,92.19
2022-12-01T20:07:40.150Z,92.18
2022-12-01T20:11:04.484Z,92.76
2022-12-01T20:14:10.986Z,92.92
2022-12-01T20:17:16.531Z,93.28
2022-12-01T20:20:30.034Z,92.95
2022-12-01T20:23:35.892Z,93.04
2022-12-01T20:26:52.156Z,92.75
2022-12-01T20:30:06.852Z,93.58
2022-12-01T20:33:13.306Z,93.57
2022-12-01T20:36:23.981Z,93.79
2022-12-01T20:39:27.992Z,93.66
2022-12-01T20:42:39.794Z,93.47
2022-12-01T20:45:52.275Z,93.70
2022-12-01T20:49:05.966Z,93.58
2022-12-01T20:52:17.978Z,93.64
2022-12-01T20:55:21.974Z,93.58
2022-12-01T20:58:26.105Z,93.63
2022-12-01T21:01:36.022Z,93.69
2022-12-01T21:04:42.284Z,93.43
2022-12-01T21:07:47.229Z,93.13
2022-12-01T21:10:51.985Z,93.08
2022-12-01T21:13:55.516Z,93.06
2022-12-01T21:17:12.047Z,92.82
2022-12-01T21:20:34.965Z,92.73
2022-12-01T21:23:39.150Z,92.79
2022-12-01T21:27:00.184Z,92.85
2022-12-01T21:30:21.002Z,92.66
2022-12-01T21:33:34.273Z,92.66
2022-12-01T21:36:37.925Z,92.42
2022-12-01T21:39:41.031Z,92.15
2022-12-01T21:42:45.963Z,92.06
2022-12-01T21:45:54.094Z,92.32
2022-12-01T21:48:58.531Z,92.55
2022-12-01T21:52:13.962Z,92.81
2022-12-01T21:55:18.214Z,92.93
2022-12-01T21:58:28.992Z,93.49
2022-12-01T22:01:35.004Z,93.30
2022-12-01T22:04:37.982Z,93.16
2022-12-01T22:07:46.097Z,92.92
2022-12-01T22:11:03.440Z,93.17
2022-12-01T22:14:18.934Z,93.15
2022-12-01T22:17:25.245Z,93.22
2022-12-01T22:20:28.730Z,93.11
2022-12-01T22:23:35.120Z,93.11
2022-12-01T22:26:41.540Z,93.27
2022-12-01T22:29:47.358Z,93.25
2022-12-01T22:32:58.646Z,93.30
2022-12-01T22:36:01.436Z,93.21
2022-12-01T22:39:25.966Z,93.84
2022-12-01T22:42:33.038Z,94.18
2022-12-01T22:45:36.122Z,93.78
2022-12-01T22:48:43.699Z,93.66
2022-12-01T22:52:07.082Z,93.90
2022-12-01T22:55:15.838Z,93.88
2022-12-01T22:58:27.955Z,93.54
2022-12-01T23:01:34.012Z,93.40
2022-12-01T23:04:44.938Z,93.64
2022-12-01T23:07:48.762Z,93.91
2022-12-01T23:10:52.583Z,94.26
2022-12-01T23:13:56.861Z,94.76
2022-12-01T23:17:07.483Z,94.71
2022-12-01T23:20:19.946Z,94.89
2022-12-01T23:23:34.559Z,94.75
2022-12-01T23:26:38.222Z,94.69
2022-12-01T23:29:41.024Z,94.48
2022-12-01T23:32:44.796Z,94.67
2022-12-01T23:36:00.465Z,94.51
2022-12-01T23:39:10.919Z,94.36
2022-12-01T23:42:14.166Z,94.22
2022-12-01T23:45:27.990Z,94.04
2022-12-01T23:48:38.037Z,94.10
2022-12-01T23:51:51.560Z,94.10
2022-12-01T23:54:54.054Z,95.17
2022-12-01T23:57:59.055Z,94.91
